createdAt,value
2022-12-08T00:02:09.610Z,1.13
2022-12-08T00:04:59.647Z,0.60
2022-12-08T00:07:45.100Z,1.10
2022-12-08T00:10:40.248Z,1.23
2022-12-08T00:13:01.634Z,0.73
2022-12-08T00:15:31.269Z,0.93
2022-12-08T00:17:59.493Z,0.83
2022-12-08T00:20:27.816Z,1.60
2022-12-08T00:22:56.067Z,0.70
2022-12-08T00:25:24.276Z,2.10
2022-12-08T00:27:52.504Z,1.60
2022-12-08T00:30:20.843Z,0.40
2022-12-08T00:32:50.449Z,0.93
2022-12-08T00:35:18.706Z,1.13
2022-12-08T00:37:46.930Z,1.13
2022-12-08T00:40:15.428Z,1.70
2022-12-08T00:42:43.719Z,0.70
2022-12-08T00:45:13.002Z,0.70
2022-12-08T00:47:41.357Z,1.30
2022-12-08T00:50:11.750Z,0.40
2022-12-08T00:52:40.046Z,2.63
2022-12-08T00:55:08.975Z,0.80
2022-12-08T00:57:37.247Z,0.97
2022-12-08T01:00:06.900Z,1.30
2022-12-08T01:02:35.401Z,0.40
2022-12-08T01:05:03.604Z,0.80
2022-12-08T01:07:33.506Z,1.53
2022-12-08T01:10:01.918Z,1.33
2022-12-08T01:12:31.328Z,0.60
2022-12-08T01:15:03.054Z,2.10
2022-12-08T01:17:31.454Z,1.80
2022-12-08T01:19:59.856Z,1.43
2022-12-08T01:22:28.104Z,1.27
2022-12-08T01:24:57.774Z,1.43
2022-12-08T01:27:26.033Z,1.27
2022-12-08T01:29:54.351Z,1.10
2022-12-08T01:32:22.554Z,0.50
2022-12-08T01:34:50.902Z,0.73
2022-12-08T01:37:19.150Z,0.40
2022-12-08T01:39:47.372Z,1.07
2022-12-08T01:42:23.455Z,2.27
2022-12-08T01:44:57.609Z,1.97
2022-12-08T01:47:30.700Z,1.73
2022-12-08T01:49:59.365Z,0.90
2022-12-08T01:52:33.945Z,1.43
2022-12-08T01:55:06.950Z,0.97
2022-12-08T01:57:42.853Z,2.20
2022-12-08T02:00:13.625Z,1.70
2022-12-08T02:02:52.343Z,0.93
2022-12-08T02:05:29.017Z,0.30
2022-12-08T02:07:59.118Z,2.23
2022-12-08T02:10:30.784Z,0.97
2022-12-08T02:13:01.808Z,1.67
2022-12-08T02:15:38.802Z,0.50
2022-12-08T02:18:20.864Z,2.33
2022-12-08T02:20:59.461Z,0.90
2022-12-08T02:23:38.551Z,1.60
2022-12-08T02:26:36.478Z,0.40
2022-12-08T02:29:46.606Z,0.50
2022-12-08T02:32:44.351Z,1.53
2022-12-08T02:35:17.721Z,0.80
2022-12-08T02:37:51.730Z,1.10
2022-12-08T02:40:26.016Z,2.73
2022-12-08T02:42:59.141Z,1.37
2022-12-08T02:45:33.146Z,0.43
2022-12-08T02:48:01.891Z,0.73
2022-12-08T02:50:31.632Z,0.47
2022-12-08T02:52:59.866Z,0.93
2022-12-08T02:55:30.329Z,0.73
2022-12-08T02:58:19.916Z,1.03
2022-12-08T03:01:01.801Z,1.93
2022-12-08T03:03:37.114Z,0.77
2022-12-08T03:06:20.993Z,1.50
2022-12-08T03:08:56.905Z,1.40
2022-12-08T03:11:31.829Z,0.63
2022-12-08T03:14:03.057Z,0.50
2022-12-08T03:16:34.045Z,0.33
2022-12-08T03:19:08.799Z,0.40
2022-12-08T03:21:40.330Z,0.30
2022-12-08T03:24:11.284Z,1.60
2022-12-08T03:26:45.074Z,1.43
2022-12-08T03:29:14.259Z,0.83
2022-12-08T03:31:50.675Z,0.73
2022-12-08T03:34:19.954Z,1.93
2022-12-08T03:36:49.586Z,0.60
2022-12-08T03:39:17.842Z,0.50
2022-12-08T03:41:46.775Z,1.13
2022-12-08T03:44:15.135Z,0.77
2022-12-08T03:46:43.347Z,1.70
2022-12-08T03:49:11.748Z,0.57
2022-12-08T03:51:40.033Z,1.03
2022-12-08T03:54:09.697Z,0.63
2022-12-08T03:56:39.779Z,1.63
2022-12-08T03:59:08.762Z,0.47
2022-12-08T04:01:37.091Z,0.80
2022-12-08T04:04:05.554Z,1.70
2022-12-08T04:06:33.964Z,1.47
2022-12-08T04:09:02.207Z,0.97
2022-12-08T04:11:31.873Z,1.07
2022-12-08T04:14:00.146Z,1.37
2022-12-08T04:16:28.719Z,0.53
2022-12-08T04:18:57.129Z,0.77
2022-12-08T04:21:25.471Z,0.50
2022-12-08T04:23:59.181Z,0.30
2022-12-08T04:26:29.650Z,0.70
2022-12-08T04:28:59.364Z,0.80
2022-12-08T04:31:27.807Z,0.70
2022-12-08T04:33:56.127Z,1.17
2022-12-08T04:36:24.499Z,0.87
2022-12-08T04:38:52.823Z,1.27
2022-12-08T04:41:21.151Z,1.10
2022-12-08T04:43:49.521Z,2.77
2022-12-08T04:46:19.310Z,1.23
2022-12-08T04:48:47.594Z,0.60
2022-12-08T04:51:18.103Z,1.20
2022-12-08T04:53:49.876Z,1.60
2022-12-08T04:56:20.540Z,0.40
2022-12-08T04:58:48.995Z,0.80
2022-12-08T05:01:18.697Z,0.57
2022-12-08T05:03:46.928Z,2.27
2022-12-08T05:06:15.861Z,0.73
2022-12-08T05:08:44.581Z,2.00
2022-12-08T05:11:14.470Z,0.97
2022-12-08T05:13:42.796Z,0.40
2022-12-08T05:16:13.623Z,1.07
2022-12-08T05:18:44.047Z,1.20
2022-12-08T05:21:12.550Z,0.80
2022-12-08T05:23:40.841Z,0.60
2022-12-08T05:26:09.291Z,1.90
2022-12-08T05:28:42.227Z,0.77
2022-12-08T05:31:11.022Z,0.77
2022-12-08T05:33:39.361Z,1.40
2022-12-08T05:36:09.529Z,0.67
2022-12-08T05:38:37.824Z,0.50
2022-12-08T05:41:07.594Z,3.00
2022-12-08T05:43:36.174Z,1.53
2022-12-08T05:46:04.742Z,1.80
2022-12-08T05:48:32.985Z,2.07
2022-12-08T05:51:01.509Z,1.80
2022-12-08T05:53:31.421Z,1.03
2022-12-08T05:55:59.735Z,0.87
2022-12-08T05:58:27.960Z,0.80
2022-12-08T06:00:56.276Z,0.90
2022-12-08T06:03:24.550Z,0.80
2022-12-08T06:05:52.841Z,0.83
2022-12-08T06:08:21.161Z,0.80
2022-12-08T06:10:50.913Z,1.67
2022-12-08T06:13:19.131Z,1.30
2022-12-08T06:15:47.474Z,0.60
2022-12-08T06:18:15.687Z,0.50
2022-12-08T06:20:43.965Z,0.60
2022-12-08T06:23:12.288Z,2.00
2022-12-08T06:25:40.527Z,1.40
2022-12-08T06:28:10.309Z,1.23
2022-12-08T06:30:39.227Z,1.33
2022-12-08T06:33:07.530Z,0.83
2022-12-08T06:35:35.850Z,0.40
2022-12-08T06:38:04.258Z,1.20
2022-12-08T06:40:32.512Z,1.03
2022-12-08T06:43:00.744Z,0.93
2022-12-08T06:45:30.481Z,0.30
2022-12-08T06:47:58.878Z,0.80
2022-12-08T06:50:27.177Z,0.60
2022-12-08T06:53:04.488Z,2.20
2022-12-08T06:58:22.528Z,2.07
2022-12-08T07:00:52.313Z,1.20
2022-12-08T07:03:20.749Z,0.90
2022-12-08T07:05:49.207Z,1.57
2022-12-08T07:08:17.606Z,1.00
2022-12-08T07:10:48.176Z,3.33
2022-12-08T07:13:16.401Z,1.83
2022-12-08T07:15:44.673Z,3.80
2022-12-08T07:18:14.454Z,2.03
2022-12-08T07:20:42.711Z,5.17
2022-12-08T07:23:11.022Z,2.93
2022-12-08T07:25:39.354Z,2.83
2022-12-08T07:28:12.536Z,2.80
2022-12-08T07:30:41.017Z,1.70
2022-12-08T07:33:09.271Z,2.00
2022-12-08T07:35:38.961Z,3.10
2022-12-08T07:38:11.386Z,0.57
2022-12-08T07:40:42.497Z,1.77
2022-12-08T07:43:10.800Z,0.53
2022-12-08T07:45:39.179Z,0.80
2022-12-08T07:48:09.341Z,1.90
2022-12-08T07:50:39.295Z,1.73
2022-12-08T07:53:08.216Z,2.17
2022-12-08T07:55:40.264Z,1.43
2022-12-08T07:58:08.870Z,2.07
2022-12-08T08:00:37.849Z,3.13
2022-12-08T08:03:06.409Z,0.50
2022-12-08T08:05:35.629Z,1.03
2022-12-08T08:08:06.187Z,0.77
2022-12-08T08:10:34.441Z,1.10
2022-12-08T08:13:02.972Z,1.40
2022-12-08T08:15:31.419Z,1.43
2022-12-08T08:17:59.749Z,1.33
2022-12-08T08:20:28.277Z,0.73
2022-12-08T08:22:56.531Z,0.97
2022-12-08T08:25:26.219Z,0.93
2022-12-08T08:27:55.888Z,0.60
2022-12-08T08:30:24.088Z,1.23
2022-12-08T08:32:52.554Z,2.00
2022-12-08T08:35:21.246Z,1.03
2022-12-08T08:37:49.755Z,1.07
2022-12-08T08:40:18.846Z,0.40
2022-12-08T08:42:48.479Z,0.80
2022-12-08T08:45:16.739Z,1.27
2022-12-08T08:47:45.054Z,0.80
2022-12-08T08:50:13.516Z,0.40
2022-12-08T08:52:41.763Z,0.73
2022-12-08T08:55:10.414Z,0.30
2022-12-08T08:57:38.839Z,0.50
2022-12-08T09:00:10.838Z,0.43
2022-12-08T09:02:42.054Z,1.03
2022-12-08T09:05:10.567Z,0.63
2022-12-08T09:07:38.909Z,1.30
2022-12-08T09:10:09.661Z,0.40
2022-12-08T09:12:37.945Z,0.63
2022-12-08T09:15:08.762Z,1.53
2022-12-08T09:17:37.041Z,1.63
2022-12-08T09:20:06.109Z,0.57
2022-12-08T09:22:34.598Z,0.77
2022-12-08T09:25:02.835Z,1.70
2022-12-08T09:27:32.046Z,0.40
2022-12-08T09:30:00.814Z,0.77
2022-12-08T09:32:31.652Z,1.50
2022-12-08T09:34:59.887Z,1.60
2022-12-08T09:37:28.566Z,1.33
2022-12-08T09:39:57.363Z,1.63
2022-12-08T09:42:38.391Z,0.50
2022-12-08T09:45:12.146Z,1.53
2022-12-08T09:47:46.864Z,0.97
2022-12-08T09:50:20.971Z,0.63
2022-12-08T09:53:02.515Z,1.27
2022-12-08T09:55:40.448Z,0.80
2022-12-08T09:58:18.861Z,1.07
2022-12-08T10:00:47.209Z,1.77
2022-12-08T10:03:17.248Z,2.20
2022-12-08T10:05:51.372Z,1.93
2022-12-08T10:08:22.498Z,1.93
2022-12-08T10:10:58.571Z,1.33
2022-12-08T10:13:34.595Z,1.47
2022-12-08T10:16:24.148Z,0.60
2022-12-08T10:19:02.804Z,1.03
2022-12-08T10:21:33.890Z,0.67
2022-12-08T10:24:08.767Z,0.40
2022-12-08T10:26:37.267Z,0.50
2022-12-08T10:29:07.079Z,1.83
2022-12-08T10:31:35.468Z,0.97
2022-12-08T10:34:17.525Z,2.93
2022-12-08T10:36:51.841Z,0.97
2022-12-08T10:39:38.471Z,1.40
2022-12-08T10:42:16.692Z,1.40
2022-12-08T10:44:56.094Z,0.90
2022-12-08T10:47:27.005Z,0.40
2022-12-08T10:50:23.555Z,0.80
2022-12-08T10:52:57.564Z,0.60
2022-12-08T10:55:25.857Z,1.33
2022-12-08T10:57:56.031Z,0.97
2022-12-08T11:00:27.471Z,0.70
2022-12-08T11:02:59.568Z,1.50
2022-12-08T11:05:33.266Z,0.50
2022-12-08T11:08:02.067Z,1.57
2022-12-08T11:10:36.820Z,1.13
2022-12-08T11:13:07.580Z,0.70
2022-12-08T11:15:39.549Z,0.30
2022-12-08T11:18:27.100Z,0.90
2022-12-08T11:21:03.184Z,0.60
2022-12-08T11:23:32.219Z,1.07
2022-12-08T11:26:09.729Z,1.73
2022-12-08T11:28:38.052Z,0.40
2022-12-08T11:31:16.102Z,1.27
2022-12-08T11:33:45.886Z,0.60
2022-12-08T11:36:17.610Z,0.30
2022-12-08T11:38:51.287Z,2.13
2022-12-08T11:41:25.153Z,0.67
2022-12-08T11:43:58.523Z,0.93
2022-12-08T11:46:31.699Z,1.17
2022-12-08T11:49:06.695Z,0.77
2022-12-08T11:51:40.871Z,0.80
2022-12-08T11:54:19.678Z,0.70
2022-12-08T11:56:50.782Z,0.80
2022-12-08T11:59:25.315Z,3.03
2022-12-08T12:01:53.800Z,1.97
2022-12-08T12:04:29.170Z,1.40
2022-12-08T12:07:30.727Z,0.50
2022-12-08T12:10:15.156Z,0.70
2022-12-08T12:12:59.381Z,2.50
2022-12-08T12:15:53.530Z,0.80
2022-12-08T12:18:28.505Z,1.20
2022-12-08T12:21:00.100Z,1.17
2022-12-08T12:23:38.311Z,1.00
2022-12-08T12:26:09.794Z,0.77
2022-12-08T12:28:46.445Z,0.73
2022-12-08T12:31:18.281Z,0.87
2022-12-08T12:33:48.460Z,1.37
2022-12-08T12:36:18.219Z,1.93
2022-12-08T12:39:03.652Z,0.50
2022-12-08T12:41:38.887Z,0.90
2022-12-08T12:44:41.117Z,1.03
2022-12-08T12:47:14.869Z,0.67
2022-12-08T12:49:54.625Z,0.57
2022-12-08T12:52:48.928Z,0.87
2022-12-08T12:55:50.747Z,0.70
2022-12-08T12:58:38.329Z,1.77
2022-12-08T13:01:39.020Z,0.40
2022-12-08T13:04:10.763Z,0.30
2022-12-08T13:06:42.517Z,1.10
2022-12-08T13:09:25.520Z,1.00
2022-12-08T13:11:58.699Z,1.13
2022-12-08T13:14:36.743Z,0.57
2022-12-08T13:17:11.694Z,0.90
2022-12-08T13:19:41.512Z,0.50
2022-12-08T13:22:46.701Z,1.13
2022-12-08T13:25:57.402Z,0.40
2022-12-08T13:28:29.867Z,0.57
2022-12-08T13:30:59.837Z,1.27
2022-12-08T13:33:32.022Z,0.90
2022-12-08T13:36:22.593Z,0.50
2022-12-08T13:38:57.387Z,1.40
2022-12-08T13:41:37.066Z,1.10
2022-12-08T13:45:17.846Z,1.20
2022-12-08T13:47:32.114Z,0.70
2022-12-08T13:56:59.749Z,1.40
2022-12-08T13:58:34.519Z,1.70
2022-12-08T14:01:10.412Z,0.60
2022-12-08T14:04:11.700Z,1.77
2022-12-08T14:06:38.154Z,2.30
2022-12-08T14:09:11.710Z,0.73
2022-12-08T14:11:44.513Z,0.93
2022-12-08T14:14:32.518Z,0.60
2022-12-08T14:17:13.182Z,1.40
2022-12-08T14:19:44.707Z,1.30
2022-12-08T14:22:15.037Z,0.67
2022-12-08T14:24:46.739Z,1.70
2022-12-08T14:27:18.745Z,1.60
2022-12-08T14:29:48.710Z,2.13
2022-12-08T14:32:28.816Z,1.90
2022-12-08T14:34:59.886Z,0.70
2022-12-08T14:37:30.132Z,1.00
2022-12-08T14:40:06.134Z,2.13
2022-12-08T14:42:45.033Z,1.50
2022-12-08T14:45:14.992Z,2.03
2022-12-08T14:47:45.745Z,1.00
2022-12-08T14:50:39.877Z,1.20
2022-12-08T14:53:15.258Z,1.20
2022-12-08T14:55:46.111Z,2.83
2022-12-08T14:58:20.707Z,0.67
2022-12-08T15:00:51.664Z,1.30
2022-12-08T15:03:23.928Z,0.80
2022-12-08T15:05:54.101Z,0.50
2022-12-08T15:08:22.514Z,3.77
2022-12-08T15:11:19.270Z,1.10
2022-12-08T15:13:48.552Z,0.97
2022-12-08T15:16:27.156Z,1.20
2022-12-08T15:19:18.997Z,2.23
2022-12-08T15:21:48.175Z,1.70
2022-12-08T15:24:18.099Z,1.33
2022-12-08T15:26:48.282Z,1.47
2022-12-08T15:29:22.377Z,0.60
2022-12-08T15:31:52.687Z,1.37
2022-12-08T15:34:23.147Z,1.97
2022-12-08T15:36:53.429Z,1.77
2022-12-08T15:39:34.274Z,1.63
2022-12-08T15:42:03.622Z,1.37
2022-12-08T15:44:33.050Z,2.50
2022-12-08T15:47:02.086Z,2.60
2022-12-08T15:49:32.052Z,2.00
2022-12-08T15:52:10.773Z,2.50
2022-12-08T15:54:39.882Z,1.57
2022-12-08T15:57:19.563Z,3.07
2022-12-08T15:59:54.421Z,1.00
2022-12-08T16:02:25.030Z,1.57
2022-12-08T16:07:43.588Z,1.23
2022-12-08T16:10:18.101Z,1.07
2022-12-08T16:15:59.863Z,2.67
2022-12-08T16:18:33.001Z,5.03
2022-12-08T16:21:13.315Z,3.17
2022-12-08T16:23:51.434Z,3.40
2022-12-08T16:27:28.408Z,2.07
2022-12-08T16:29:17.804Z,2.73
2022-12-08T16:31:46.097Z,1.00
2022-12-08T16:34:14.415Z,1.50
2022-12-08T16:36:43.971Z,1.77
2022-12-08T16:39:14.948Z,0.80
2022-12-08T16:42:00.814Z,2.33
2022-12-08T16:44:29.172Z,1.10
2022-12-08T16:46:57.445Z,2.07
2022-12-08T16:49:29.020Z,3.00
2022-12-08T16:51:58.982Z,6.67
2022-12-08T16:54:27.463Z,4.30
2022-12-08T16:56:55.932Z,3.10
2022-12-08T16:59:24.174Z,2.83
2022-12-08T17:01:52.647Z,1.13
2022-12-08T17:04:31.289Z,1.80
2022-12-08T17:09:47.441Z,5.73
2022-12-08T17:12:15.721Z,6.63
2022-12-08T17:14:43.972Z,3.63
2022-12-08T17:17:12.157Z,3.50
2022-12-08T17:19:40.447Z,4.50
2022-12-08T17:22:10.086Z,2.03
2022-12-08T17:24:39.421Z,5.80
2022-12-08T17:27:07.602Z,4.23
2022-12-08T17:29:36.160Z,3.93
2022-12-08T17:32:04.551Z,5.23
2022-12-08T17:34:32.850Z,6.00
2022-12-08T17:37:01.049Z,3.63
2022-12-08T17:39:30.721Z,3.97
2022-12-08T17:41:58.970Z,2.13
2022-12-08T17:44:28.259Z,2.90
2022-12-08T17:46:56.505Z,1.93
2022-12-08T17:49:27.051Z,2.63
2022-12-08T17:51:57.891Z,4.83
2022-12-08T17:54:26.935Z,1.60
2022-12-08T17:56:58.762Z,4.03
2022-12-08T17:59:28.656Z,5.43
2022-12-08T18:01:58.146Z,8.17
2022-12-08T18:04:27.913Z,6.70
2022-12-08T18:06:58.379Z,3.40
2022-12-08T18:09:26.666Z,3.97
2022-12-08T18:11:56.412Z,3.67
2022-12-08T18:14:24.909Z,4.70
2022-12-08T18:16:53.474Z,3.50
2022-12-08T18:19:21.742Z,3.50
2022-12-08T18:21:49.978Z,2.43
2022-12-08T18:24:21.030Z,2.77
2022-12-08T18:26:51.870Z,2.90
2022-12-08T18:29:22.594Z,2.40
2022-12-08T18:31:51.634Z,3.50
2022-12-08T18:34:20.134Z,3.23
2022-12-08T18:36:48.853Z,3.33
2022-12-08T18:39:25.407Z,2.20
2022-12-08T18:41:54.487Z,4.10
2022-12-08T18:44:24.235Z,2.30
2022-12-08T18:46:52.587Z,3.67
2022-12-08T18:49:21.196Z,3.10
2022-12-08T18:51:49.538Z,5.50
2022-12-08T18:54:17.945Z,5.47
2022-12-08T18:56:46.239Z,5.50
2022-12-08T18:59:14.846Z,6.13
2022-12-08T19:01:44.507Z,3.63
2022-12-08T19:04:29.297Z,5.20
2022-12-08T19:06:57.965Z,3.43
2022-12-08T19:09:27.065Z,3.00
2022-12-08T19:11:55.617Z,1.83
2022-12-08T19:14:28.245Z,2.47
2022-12-08T19:16:58.973Z,3.10
2022-12-08T19:19:27.649Z,3.30
2022-12-08T19:21:56.109Z,1.60
2022-12-08T19:24:24.831Z,1.27
2022-12-08T19:26:53.151Z,2.60
2022-12-08T19:29:21.530Z,2.57
2022-12-08T19:31:49.998Z,2.20
2022-12-08T19:34:22.709Z,3.83
2022-12-08T19:36:51.159Z,2.00
2022-12-08T19:39:38.325Z,2.63
2022-12-08T19:42:31.078Z,0.70
2022-12-08T19:45:02.406Z,1.87
2022-12-08T19:47:30.745Z,2.00
2022-12-08T19:50:14.325Z,2.93
2022-12-08T19:52:42.966Z,2.93
2022-12-08T19:55:11.973Z,2.10
2022-12-08T19:57:40.315Z,1.83
2022-12-08T20:00:10.636Z,1.53
2022-12-08T20:02:39.076Z,1.47
2022-12-08T20:05:12.491Z,4.87
2022-12-08T20:07:41.625Z,3.50
2022-12-08T20:10:15.743Z,3.03
2022-12-08T20:12:44.028Z,3.37
2022-12-08T20:15:12.677Z,2.87
2022-12-08T20:17:41.013Z,2.17
2022-12-08T20:20:13.160Z,2.37
2022-12-08T20:22:41.763Z,5.80
2022-12-08T20:25:12.984Z,4.20
2022-12-08T20:27:42.590Z,1.70
2022-12-08T20:30:16.684Z,3.47
2022-12-08T20:32:45.547Z,2.80
2022-12-08T20:35:16.373Z,2.60
2022-12-08T20:37:44.850Z,6.20
2022-12-08T20:40:13.589Z,1.80
2022-12-08T20:42:41.855Z,2.30
2022-12-08T20:45:10.757Z,2.10
2022-12-08T20:47:39.141Z,1.60
2022-12-08T20:50:09.149Z,1.23
2022-12-08T20:52:39.303Z,1.73
2022-12-08T20:55:09.361Z,2.50
2022-12-08T20:57:37.946Z,2.40
2022-12-08T21:00:08.858Z,2.80
2022-12-08T21:02:43.244Z,1.10
2022-12-08T21:05:13.757Z,3.50
2022-12-08T21:07:43.642Z,2.70
2022-12-08T21:10:12.698Z,2.37
2022-12-08T21:12:44.045Z,2.10
2022-12-08T21:15:13.408Z,1.40
2022-12-08T21:17:42.263Z,1.40
2022-12-08T21:20:11.553Z,2.60
2022-12-08T21:22:40.438Z,2.83
2022-12-08T21:25:11.347Z,1.40
2022-12-08T21:27:40.283Z,2.13
2022-12-08T21:30:10.883Z,3.40
2022-12-08T21:32:40.222Z,1.43
2022-12-08T21:35:09.830Z,1.30
2022-12-08T21:37:38.422Z,3.00
2022-12-08T21:40:08.175Z,3.80
2022-12-08T21:42:47.315Z,2.97
2022-12-08T21:45:18.111Z,4.60
2022-12-08T21:47:48.243Z,3.03
2022-12-08T21:50:17.735Z,1.93
2022-12-08T21:52:49.104Z,2.30
2022-12-08T21:55:19.227Z,2.33
2022-12-08T21:57:49.254Z,1.13
2022-12-08T22:00:19.270Z,2.03
2022-12-08T22:02:47.754Z,1.60
2022-12-08T22:05:16.175Z,1.00
2022-12-08T22:07:44.814Z,4.07
2022-12-08T22:10:13.774Z,1.60
2022-12-08T22:12:42.508Z,1.83
2022-12-08T22:15:13.456Z,2.03
2022-12-08T22:17:43.455Z,1.07
2022-12-08T22:20:14.992Z,1.50
2022-12-08T22:22:43.588Z,1.43
2022-12-08T22:25:13.230Z,0.50
2022-12-08T22:27:42.655Z,0.70
2022-12-08T22:30:13.560Z,1.30
2022-12-08T22:32:42.434Z,1.37
2022-12-08T22:35:11.602Z,0.73
2022-12-08T22:37:40.493Z,1.20
2022-12-08T22:40:10.106Z,1.63
2022-12-08T22:42:38.643Z,1.10
2022-12-08T22:45:08.110Z,0.93
2022-12-08T22:47:37.891Z,0.80
2022-12-08T22:50:07.896Z,1.20
2022-12-08T22:52:55.148Z,1.70
2022-12-08T22:55:23.747Z,0.60
2022-12-08T22:57:52.047Z,2.00
2022-12-08T23:00:21.378Z,1.20
2022-12-08T23:02:51.234Z,0.70
2022-12-08T23:05:19.849Z,0.70
2022-12-08T23:07:48.522Z,0.50
2022-12-08T23:10:16.959Z,0.40
2022-12-08T23:12:45.219Z,0.90
2022-12-08T23:15:13.943Z,1.67
2022-12-08T23:17:42.522Z,0.50
2022-12-08T23:20:13.537Z,1.27
2022-12-08T23:22:41.807Z,0.57
2022-12-08T23:25:10.843Z,1.50
2022-12-08T23:27:39.556Z,0.90
2022-12-08T23:30:10.306Z,1.87
2022-12-08T23:32:39.232Z,0.97
2022-12-08T23:35:09.002Z,0.97
2022-12-08T23:37:38.785Z,0.90
2022-12-08T23:40:08.823Z,0.50
2022-12-08T23:42:37.242Z,1.90
2022-12-08T23:45:08.460Z,1.57
2022-12-08T23:47:36.971Z,2.20
2022-12-08T23:50:06.617Z,3.70
2022-12-08T23:52:35.212Z,2.33
2022-12-08T23:55:05.148Z,1.60
2022-12-08T23:57:33.508Z,1.10
